CheckWX is a tool to help pilots better visualize weather data.  It is not intended as a substitute for an official pre-flight weather briefing.

16:42:13 UTC

LRAR METAR
Arad International Airport
Arad, Romania
Current

12 mins ago

LRAR 231630Z 20003KT 120V240 8000 NSC 00/M01 Q1035
Observed
Jan-23 @ 16:30 UTC
Wind
  • 200° at 3 KTS
Visibility
8,000 meters
Flight Rules
MVFR
Cloud Levels
  • Clear skies
Temperature
C / 32°F
Dewpoint
-1°C / 30°F
Humidity
93%
Altimeter
30.56" Hg
Pressure
1034.92 hPa
Previous

42 mins ago

LRAR 231600Z 18002KT 8000 NSC 00/M02 Q1034
Observed
Jan-23 @ 16:00 UTC
Wind
  • 180° at 2 KTS
Visibility
8,000 meters
Flight Rules
MVFR
Cloud Levels
  • Clear skies
Temperature
C / 32°F
Dewpoint
-2°C / 28°F
Humidity
87%
Altimeter
30.53" Hg
Pressure
1033.92 hPa
Previous

1 hour ago

LRAR 231530Z 21003KT 9999 FEW024 02/M02 Q1034
Observed
Jan-23 @ 15:30 UTC
Wind
  • 210° at 3 KTS
Visibility
10,000+ meters
Flight Rules
VFR
Cloud Levels
  • Few at 2,400' AGL
Temperature
C / 36°F
Dewpoint
-2°C / 28°F
Humidity
75%
Altimeter
30.53" Hg
Pressure
1033.92 hPa